sensor_id;sensor_type;location;lat;lon;timestamp;P1;durP1;ratioP1;P2;durP2;ratioP2
2724;SDS011;1370;52.596;13.112;2023-07-16T00:00:49;3.17;;;2.97;;
2724;SDS011;1370;52.596;13.112;2023-07-16T00:03:15;2.80;;;2.50;;
2724;SDS011;1370;52.596;13.112;2023-07-16T00:05:40;3.50;;;2.90;;
2724;SDS011;1370;52.596;13.112;2023-07-16T00:08:06;4.20;;;3.00;;
2724;SDS011;1370;52.596;13.112;2023-07-16T00:10:34;3.00;;;2.80;;
2724;SDS011;1370;52.596;13.112;2023-07-16T00:13:00;2.90;;;2.70;;
2724;SDS011;1370;52.596;13.112;2023-07-16T00:15:25;3.10;;;2.90;;
2724;SDS011;1370;52.596;13.112;2023-07-16T00:17:51;3.13;;;2.93;;
2724;SDS011;1370;52.596;13.112;2023-07-16T00:20:16;2.57;;;2.37;;
2724;SDS011;1370;52.596;13.112;2023-07-16T00:22:41;3.30;;;3.00;;
2724;SDS011;1370;52.596;13.112;2023-07-16T00:25:07;3.00;;;2.60;;
2724;SDS011;1370;52.596;13.112;2023-07-16T00:27:32;5.47;;;2.83;;
2724;SDS011;1370;52.596;13.112;2023-07-16T00:29:57;5.60;;;3.43;;
2724;SDS011;1370;52.596;13.112;2023-07-16T00:32:23;3.80;;;3.37;;
2724;SDS011;1370;52.596;13.112;2023-07-16T00:34:48;3.50;;;3.10;;
2724;SDS011;1370;52.596;13.112;2023-07-16T00:37:13;3.60;;;3.30;;
2724;SDS011;1370;52.596;13.112;2023-07-16T00:39:38;4.90;;;3.60;;
2724;SDS011;1370;52.596;13.112;2023-07-16T00:42:04;3.23;;;3.00;;
2724;SDS011;1370;52.596;13.112;2023-07-16T00:44:29;3.80;;;3.17;;
2724;SDS011;1370;52.596;13.112;2023-07-16T00:46:54;3.83;;;3.37;;
2724;SDS011;1370;52.596;13.112;2023-07-16T00:49:20;3.83;;;3.27;;
2724;SDS011;1370;52.596;13.112;2023-07-16T00:51:45;8.50;;;4.10;;
2724;SDS011;1370;52.596;13.112;2023-07-16T00:54:11;6.47;;;3.20;;
2724;SDS011;1370;52.596;13.112;2023-07-16T00:56:37;4.23;;;3.83;;
2724;SDS011;1370;52.596;13.112;2023-07-16T00:59:02;4.67;;;3.20;;
2724;SDS011;1370;52.596;13.112;2023-07-16T01:01:27;3.40;;;3.20;;
2724;SDS011;1370;52.596;13.112;2023-07-16T01:03:53;3.43;;;3.13;;
2724;SDS011;1370;52.596;13.112;2023-07-16T01:11:23;5.20;;;4.80;;
2724;SDS011;1370;52.596;13.112;2023-07-16T01:13:49;4.17;;;3.77;;
2724;SDS011;1370;52.596;13.112;2023-07-16T01:16:19;4.50;;;4.10;;
2724;SDS011;1370;52.596;13.112;2023-07-16T01:18:45;5.87;;;4.10;;
2724;SDS011;1370;52.596;13.112;2023-07-16T01:21:10;4.63;;;4.23;;
2724;SDS011;1370;52.596;13.112;2023-07-16T01:29:25;6.57;;;4.50;;
2724;SDS011;1370;52.596;13.112;2023-07-16T01:31:54;4.73;;;4.43;;
2724;SDS011;1370;52.596;13.112;2023-07-16T01:34:20;4.97;;;4.57;;
2724;SDS011;1370;52.596;13.112;2023-07-16T01:36:46;5.50;;;4.77;;
2724;SDS011;1370;52.596;13.112;2023-07-16T01:39:11;5.90;;;5.50;;
2724;SDS011;1370;52.596;13.112;2023-07-16T01:41:37;5.20;;;4.80;;
2724;SDS011;1370;52.596;13.112;2023-07-16T01:44:02;4.50;;;4.20;;
2724;SDS011;1370;52.596;13.112;2023-07-16T01:46:27;4.70;;;4.40;;
2724;SDS011;1370;52.596;13.112;2023-07-16T01:48:54;8.83;;;4.60;;
2724;SDS011;1370;52.596;13.112;2023-07-16T01:51:19;6.00;;;5.40;;
2724;SDS011;1370;52.596;13.112;2023-07-16T01:53:45;5.47;;;4.97;;
2724;SDS011;1370;52.596;13.112;2023-07-16T01:56:10;6.90;;;5.10;;
2724;SDS011;1370;52.596;13.112;2023-07-16T01:58:35;5.43;;;4.90;;
2724;SDS011;1370;52.596;13.112;2023-07-16T02:01:01;6.53;;;4.73;;
2724;SDS011;1370;52.596;13.112;2023-07-16T02:03:26;6.07;;;5.47;;
2724;SDS011;1370;52.596;13.112;2023-07-16T02:05:51;6.30;;;5.70;;
2724;SDS011;1370;52.596;13.112;2023-07-16T02:08:17;4.37;;;3.97;;
2724;SDS011;1370;52.596;13.112;2023-07-16T02:10:42;4.83;;;4.43;;
2724;SDS011;1370;52.596;13.112;2023-07-16T02:13:08;5.40;;;4.90;;
2724;SDS011;1370;52.596;13.112;2023-07-16T02:15:33;4.33;;;3.93;;
2724;SDS011;1370;52.596;13.112;2023-07-16T02:17:58;5.07;;;4.20;;
2724;SDS011;1370;52.596;13.112;2023-07-16T02:20:24;4.70;;;4.27;;
2724;SDS011;1370;52.596;13.112;2023-07-16T02:22:49;5.50;;;5.10;;
2724;SDS011;1370;52.596;13.112;2023-07-16T02:25:14;5.03;;;4.43;;
2724;SDS011;1370;52.596;13.112;2023-07-16T02:27:39;3.77;;;3.50;;
2724;SDS011;1370;52.596;13.112;2023-07-16T02:30:05;5.77;;;4.37;;
2724;SDS011;1370;52.596;13.112;2023-07-16T02:32:31;4.30;;;4.00;;
2724;SDS011;1370;52.596;13.112;2023-07-16T02:34:57;4.73;;;4.33;;
2724;SDS011;1370;52.596;13.112;2023-07-16T02:37:22;4.40;;;4.00;;
2724;SDS011;1370;52.596;13.112;2023-07-16T02:39:47;6.00;;;3.90;;
2724;SDS011;1370;52.596;13.112;2023-07-16T02:42:13;4.90;;;4.50;;
2724;SDS011;1370;52.596;13.112;2023-07-16T02:44:38;3.80;;;3.40;;
2724;SDS011;1370;52.596;13.112;2023-07-16T02:47:08;4.33;;;3.93;;
2724;SDS011;1370;52.596;13.112;2023-07-16T02:49:33;5.63;;;3.80;;
2724;SDS011;1370;52.596;13.112;2023-07-16T02:51:58;3.37;;;3.13;;
2724;SDS011;1370;52.596;13.112;2023-07-16T02:54:24;3.30;;;3.00;;
2724;SDS011;1370;52.596;13.112;2023-07-16T02:56:49;4.37;;;4.07;;
2724;SDS011;1370;52.596;13.112;2023-07-16T02:59:14;3.43;;;3.23;;
2724;SDS011;1370;52.596;13.112;2023-07-16T03:01:40;4.03;;;3.07;;
2724;SDS011;1370;52.596;13.112;2023-07-16T03:04:05;3.30;;;3.10;;
2724;SDS011;1370;52.596;13.112;2023-07-16T03:06:30;5.13;;;4.63;;
2724;SDS011;1370;52.596;13.112;2023-07-16T03:08:55;5.20;;;3.03;;
2724;SDS011;1370;52.596;13.112;2023-07-16T03:11:21;3.37;;;3.17;;
2724;SDS011;1370;52.596;13.112;2023-07-16T03:13:47;3.10;;;2.90;;
2724;SDS011;1370;52.596;13.112;2023-07-16T03:16:12;3.00;;;2.80;;
2724;SDS011;1370;52.596;13.112;2023-07-16T03:18:37;3.37;;;3.17;;
2724;SDS011;1370;52.596;13.112;2023-07-16T03:21:02;3.80;;;3.50;;
2724;SDS011;1370;52.596;13.112;2023-07-16T03:23:28;3.13;;;2.83;;
2724;SDS011;1370;52.596;13.112;2023-07-16T03:25:53;6.30;;;4.77;;
2724;SDS011;1370;52.596;13.112;2023-07-16T03:28:18;3.70;;;3.27;;
2724;SDS011;1370;52.596;13.112;2023-07-16T03:30:47;3.53;;;3.03;;
2724;SDS011;1370;52.596;13.112;2023-07-16T03:33:14;3.20;;;2.80;;
2724;SDS011;1370;52.596;13.112;2023-07-16T03:35:39;5.73;;;3.33;;
2724;SDS011;1370;52.596;13.112;2023-07-16T03:38:07;4.23;;;3.00;;
2724;SDS011;1370;52.596;13.112;2023-07-16T03:40:32;6.00;;;3.07;;
2724;SDS011;1370;52.596;13.112;2023-07-16T03:42:58;3.47;;;3.13;;
2724;SDS011;1370;52.596;13.112;2023-07-16T03:45:23;4.83;;;4.43;;
2724;SDS011;1370;52.596;13.112;2023-07-16T03:47:49;3.60;;;3.30;;
2724;SDS011;1370;52.596;13.112;2023-07-16T03:50:14;3.30;;;3.10;;
2724;SDS011;1370;52.596;13.112;2023-07-16T03:52:39;4.67;;;3.53;;
2724;SDS011;1370;52.596;13.112;2023-07-16T03:55:05;4.23;;;3.10;;
2724;SDS011;1370;52.596;13.112;2023-07-16T03:57:31;4.17;;;3.87;;
2724;SDS011;1370;52.596;13.112;2023-07-16T03:59:57;3.80;;;3.50;;
2724;SDS011;1370;52.596;13.112;2023-07-16T04:02:23;4.77;;;4.27;;
2724;SDS011;1370;52.596;13.112;2023-07-16T04:04:48;5.73;;;4.73;;
2724;SDS011;1370;52.596;13.112;2023-07-16T04:07:14;3.87;;;3.57;;
2724;SDS011;1370;52.596;13.112;2023-07-16T04:09:39;5.57;;;5.17;;
2724;SDS011;1370;52.596;13.112;2023-07-16T04:12:05;5.20;;;4.80;;
2724;SDS011;1370;52.596;13.112;2023-07-16T04:14:31;5.43;;;5.00;;
2724;SDS011;1370;52.596;13.112;2023-07-16T04:16:56;4.57;;;4.27;;
2724;SDS011;1370;52.596;13.112;2023-07-16T04:19:22;6.87;;;4.43;;
2724;SDS011;1370;52.596;13.112;2023-07-16T04:21:47;5.97;;;4.10;;
2724;SDS011;1370;52.596;13.112;2023-07-16T04:24:12;4.50;;;4.17;;
2724;SDS011;1370;52.596;13.112;2023-07-16T04:26:38;4.60;;;4.20;;
2724;SDS011;1370;52.596;13.112;2023-07-16T04:29:03;5.03;;;4.67;;
2724;SDS011;1370;52.596;13.112;2023-07-16T04:31:28;4.83;;;4.30;;
2724;SDS011;1370;52.596;13.112;2023-07-16T04:33:54;4.90;;;4.50;;
2724;SDS011;1370;52.596;13.112;2023-07-16T04:36:19;4.93;;;4.63;;
2724;SDS011;1370;52.596;13.112;2023-07-16T04:38:44;5.13;;;4.77;;
2724;SDS011;1370;52.596;13.112;2023-07-16T04:41:09;5.43;;;4.30;;
2724;SDS011;1370;52.596;13.112;2023-07-16T04:43:35;4.30;;;3.77;;
2724;SDS011;1370;52.596;13.112;2023-07-16T04:46:00;6.03;;;3.80;;
2724;SDS011;1370;52.596;13.112;2023-07-16T04:48:26;3.77;;;3.57;;
2724;SDS011;1370;52.596;13.112;2023-07-16T04:50:51;5.17;;;4.73;;
2724;SDS011;1370;52.596;13.112;2023-07-16T04:53:17;4.90;;;4.60;;
2724;SDS011;1370;52.596;13.112;2023-07-16T04:55:43;3.67;;;3.37;;
2724;SDS011;1370;52.596;13.112;2023-07-16T04:58:09;4.50;;;4.10;;
2724;SDS011;1370;52.596;13.112;2023-07-16T05:00:35;5.20;;;4.60;;
2724;SDS011;1370;52.596;13.112;2023-07-16T05:03:01;4.37;;;4.07;;
2724;SDS011;1370;52.596;13.112;2023-07-16T05:05:27;4.47;;;4.10;;
2724;SDS011;1370;52.596;13.112;2023-07-16T05:07:52;4.80;;;3.63;;
2724;SDS011;1370;52.596;13.112;2023-07-16T05:10:17;4.57;;;4.10;;
2724;SDS011;1370;52.596;13.112;2023-07-16T05:12:43;4.47;;;4.03;;
2724;SDS011;1370;52.596;13.112;2023-07-16T05:15:08;9.47;;;4.73;;
2724;SDS011;1370;52.596;13.112;2023-07-16T05:17:34;3.77;;;3.57;;
2724;SDS011;1370;52.596;13.112;2023-07-16T05:19:59;4.00;;;3.70;;
2724;SDS011;1370;52.596;13.112;2023-07-16T05:22:24;3.93;;;3.30;;
2724;SDS011;1370;52.596;13.112;2023-07-16T05:24:50;3.60;;;3.40;;
2724;SDS011;1370;52.596;13.112;2023-07-16T05:27:15;3.63;;;3.33;;
2724;SDS011;1370;52.596;13.112;2023-07-16T05:29:40;4.20;;;3.90;;
2724;SDS011;1370;52.596;13.112;2023-07-16T05:32:06;4.63;;;4.27;;
2724;SDS011;1370;52.596;13.112;2023-07-16T05:34:31;4.70;;;4.30;;
2724;SDS011;1370;52.596;13.112;2023-07-16T05:36:56;4.93;;;4.53;;
2724;SDS011;1370;52.596;13.112;2023-07-16T05:39:22;4.63;;;4.33;;
2724;SDS011;1370;52.596;13.112;2023-07-16T05:41:47;4.93;;;4.57;;
2724;SDS011;1370;52.596;13.112;2023-07-16T05:44:12;4.20;;;3.90;;
2724;SDS011;1370;52.596;13.112;2023-07-16T05:46:38;4.33;;;4.03;;
2724;SDS011;1370;52.596;13.112;2023-07-16T05:49:03;4.10;;;3.80;;
2724;SDS011;1370;52.596;13.112;2023-07-16T05:51:28;4.70;;;4.33;;
2724;SDS011;1370;52.596;13.112;2023-07-16T05:53:54;4.93;;;4.00;;
2724;SDS011;1370;52.596;13.112;2023-07-16T05:56:19;4.00;;;3.80;;
2724;SDS011;1370;52.596;13.112;2023-07-16T05:58:44;3.70;;;3.47;;
2724;SDS011;1370;52.596;13.112;2023-07-16T06:01:09;3.83;;;3.63;;
2724;SDS011;1370;52.596;13.112;2023-07-16T06:03:35;4.27;;;3.97;;
2724;SDS011;1370;52.596;13.112;2023-07-16T06:06:00;4.40;;;4.10;;
2724;SDS011;1370;52.596;13.112;2023-07-16T06:08:25;4.13;;;3.93;;
2724;SDS011;1370;52.596;13.112;2023-07-16T06:10:51;6.03;;;4.60;;
2724;SDS011;1370;52.596;13.112;2023-07-16T06:13:16;4.63;;;4.00;;
2724;SDS011;1370;52.596;13.112;2023-07-16T06:15:42;8.60;;;3.70;;
2724;SDS011;1370;52.596;13.112;2023-07-16T06:18:08;5.97;;;3.80;;
2724;SDS011;1370;52.596;13.112;2023-07-16T06:20:33;4.83;;;4.53;;
2724;SDS011;1370;52.596;13.112;2023-07-16T06:22:59;4.83;;;4.50;;
2724;SDS011;1370;52.596;13.112;2023-07-16T06:25:24;4.70;;;4.40;;
2724;SDS011;1370;52.596;13.112;2023-07-16T06:27:49;5.73;;;5.27;;
2724;SDS011;1370;52.596;13.112;2023-07-16T06:30:15;4.70;;;4.40;;
2724;SDS011;1370;52.596;13.112;2023-07-16T06:32:40;4.80;;;4.40;;
2724;SDS011;1370;52.596;13.112;2023-07-16T06:35:05;3.80;;;3.40;;
2724;SDS011;1370;52.596;13.112;2023-07-16T06:37:31;4.40;;;4.07;;
2724;SDS011;1370;52.596;13.112;2023-07-16T06:39:56;4.43;;;4.03;;
2724;SDS011;1370;52.596;13.112;2023-07-16T06:42:22;4.87;;;3.97;;
2724;SDS011;1370;52.596;13.112;2023-07-16T06:44:47;4.53;;;4.23;;
2724;SDS011;1370;52.596;13.112;2023-07-16T06:47:12;4.00;;;3.70;;
2724;SDS011;1370;52.596;13.112;2023-07-16T06:49:37;4.53;;;4.10;;
2724;SDS011;1370;52.596;13.112;2023-07-16T06:52:03;4.80;;;4.17;;
2724;SDS011;1370;52.596;13.112;2023-07-16T06:54:28;4.63;;;4.00;;
2724;SDS011;1370;52.596;13.112;2023-07-16T06:56:54;4.13;;;3.93;;
2724;SDS011;1370;52.596;13.112;2023-07-16T06:59:19;3.83;;;3.53;;
2724;SDS011;1370;52.596;13.112;2023-07-16T07:01:44;6.30;;;3.60;;
2724;SDS011;1370;52.596;13.112;2023-07-16T07:04:09;3.97;;;3.77;;
2724;SDS011;1370;52.596;13.112;2023-07-16T07:06:35;3.57;;;3.37;;
2724;SDS011;1370;52.596;13.112;2023-07-16T07:09:00;4.60;;;4.30;;
2724;SDS011;1370;52.596;13.112;2023-07-16T07:11:25;4.20;;;4.00;;
2724;SDS011;1370;52.596;13.112;2023-07-16T07:13:51;3.90;;;3.60;;
2724;SDS011;1370;52.596;13.112;2023-07-16T07:16:17;4.73;;;4.07;;
2724;SDS011;1370;52.596;13.112;2023-07-16T07:18:42;3.43;;;3.23;;
2724;SDS011;1370;52.596;13.112;2023-07-16T07:21:08;3.90;;;3.60;;
2724;SDS011;1370;52.596;13.112;2023-07-16T07:23:33;8.40;;;3.67;;
2724;SDS011;1370;52.596;13.112;2023-07-16T07:25:58;4.87;;;3.70;;
2724;SDS011;1370;52.596;13.112;2023-07-16T07:28:24;4.30;;;3.67;;
2724;SDS011;1370;52.596;13.112;2023-07-16T07:30:50;5.60;;;3.40;;
2724;SDS011;1370;52.596;13.112;2023-07-16T07:33:15;3.93;;;3.67;;
2724;SDS011;1370;52.596;13.112;2023-07-16T07:35:40;3.40;;;3.10;;
2724;SDS011;1370;52.596;13.112;2023-07-16T07:38:06;3.43;;;3.13;;
2724;SDS011;1370;52.596;13.112;2023-07-16T07:40:31;2.73;;;2.53;;
2724;SDS011;1370;52.596;13.112;2023-07-16T07:42:56;3.37;;;3.07;;
2724;SDS011;1370;52.596;13.112;2023-07-16T07:45:23;3.03;;;2.83;;
2724;SDS011;1370;52.596;13.112;2023-07-16T07:47:48;4.33;;;4.03;;
2724;SDS011;1370;52.596;13.112;2023-07-16T07:50:14;4.27;;;3.93;;
2724;SDS011;1370;52.596;13.112;2023-07-16T07:52:39;3.73;;;3.43;;
2724;SDS011;1370;52.596;13.112;2023-07-16T07:55:04;2.47;;;2.23;;
2724;SDS011;1370;52.596;13.112;2023-07-16T07:57:30;3.53;;;3.33;;
2724;SDS011;1370;52.596;13.112;2023-07-16T07:59:55;3.77;;;3.47;;
2724;SDS011;1370;52.596;13.112;2023-07-16T08:02:22;3.20;;;3.00;;
2724;SDS011;1370;52.596;13.112;2023-07-16T08:04:51;3.03;;;2.80;;
2724;SDS011;1370;52.596;13.112;2023-07-16T08:07:17;2.63;;;2.43;;
2724;SDS011;1370;52.596;13.112;2023-07-16T08:09:42;3.50;;;3.00;;
2724;SDS011;1370;52.596;13.112;2023-07-16T08:12:08;2.83;;;2.63;;
2724;SDS011;1370;52.596;13.112;2023-07-16T08:14:33;4.90;;;2.90;;
2724;SDS011;1370;52.596;13.112;2023-07-16T08:16:58;3.00;;;2.80;;
2724;SDS011;1370;52.596;13.112;2023-07-16T08:19:24;4.00;;;2.20;;
2724;SDS011;1370;52.596;13.112;2023-07-16T08:21:49;3.60;;;3.20;;
2724;SDS011;1370;52.596;13.112;2023-07-16T08:24:14;3.10;;;2.80;;
2724;SDS011;1370;52.596;13.112;2023-07-16T08:26:40;5.00;;;3.60;;
2724;SDS011;1370;52.596;13.112;2023-07-16T08:29:05;5.27;;;3.57;;
2724;SDS011;1370;52.596;13.112;2023-07-16T08:31:30;4.83;;;3.30;;
2724;SDS011;1370;52.596;13.112;2023-07-16T08:33:56;3.70;;;3.10;;
2724;SDS011;1370;52.596;13.112;2023-07-16T08:36:21;4.03;;;2.93;;
2724;SDS011;1370;52.596;13.112;2023-07-16T08:38:46;2.93;;;2.63;;
2724;SDS011;1370;52.596;13.112;2023-07-16T08:41:12;6.13;;;3.60;;
2724;SDS011;1370;52.596;13.112;2023-07-16T08:43:37;4.93;;;2.83;;
2724;SDS011;1370;52.596;13.112;2023-07-16T08:46:02;3.40;;;2.77;;
2724;SDS011;1370;52.596;13.112;2023-07-16T08:48:28;3.43;;;2.67;;
2724;SDS011;1370;52.596;13.112;2023-07-16T08:50:53;4.73;;;2.80;;
2724;SDS011;1370;52.596;13.112;2023-07-16T08:53:20;9.03;;;2.90;;
2724;SDS011;1370;52.596;13.112;2023-07-16T08:55:46;3.77;;;3.37;;
2724;SDS011;1370;52.596;13.112;2023-07-16T08:58:12;3.87;;;3.03;;
2724;SDS011;1370;52.596;13.112;2023-07-16T09:00:39;3.00;;;2.20;;
2724;SDS011;1370;52.596;13.112;2023-07-16T09:03:05;6.13;;;2.00;;
2724;SDS011;1370;52.596;13.112;2023-07-16T09:05:30;6.37;;;2.97;;
2724;SDS011;1370;52.596;13.112;2023-07-16T09:07:56;7.73;;;2.83;;
2724;SDS011;1370;52.596;13.112;2023-07-16T09:10:21;4.60;;;2.93;;
2724;SDS011;1370;52.596;13.112;2023-07-16T09:12:46;2.10;;;1.70;;
2724;SDS011;1370;52.596;13.112;2023-07-16T09:15:13;2.30;;;2.10;;
2724;SDS011;1370;52.596;13.112;2023-07-16T09:17:41;2.87;;;2.60;;
2724;SDS011;1370;52.596;13.112;2023-07-16T09:20:06;3.40;;;2.83;;
2724;SDS011;1370;52.596;13.112;2023-07-16T09:22:33;3.30;;;2.97;;
2724;SDS011;1370;52.596;13.112;2023-07-16T09:25:02;3.83;;;2.33;;
2724;SDS011;1370;52.596;13.112;2023-07-16T09:27:28;11.60;;;2.97;;
2724;SDS011;1370;52.596;13.112;2023-07-16T09:29:54;8.87;;;3.57;;
2724;SDS011;1370;52.596;13.112;2023-07-16T09:32:19;4.33;;;2.20;;
2724;SDS011;1370;52.596;13.112;2023-07-16T09:34:44;4.50;;;3.27;;
2724;SDS011;1370;52.596;13.112;2023-07-16T09:37:10;2.23;;;2.03;;
2724;SDS011;1370;52.596;13.112;2023-07-16T09:39:35;2.23;;;2.03;;
2724;SDS011;1370;52.596;13.112;2023-07-16T09:42:02;2.23;;;2.03;;
2724;SDS011;1370;52.596;13.112;2023-07-16T09:44:27;5.93;;;2.40;;
2724;SDS011;1370;52.596;13.112;2023-07-16T09:46:52;3.80;;;2.17;;
2724;SDS011;1370;52.596;13.112;2023-07-16T09:49:18;2.57;;;2.37;;
2724;SDS011;1370;52.596;13.112;2023-07-16T09:51:43;2.53;;;2.33;;
2724;SDS011;1370;52.596;13.112;2023-07-16T09:54:12;3.23;;;2.50;;
2724;SDS011;1370;52.596;13.112;2023-07-16T09:56:41;7.03;;;2.80;;
2724;SDS011;1370;52.596;13.112;2023-07-16T09:59:08;4.90;;;2.80;;
2724;SDS011;1370;52.596;13.112;2023-07-16T10:01:38;3.23;;;2.70;;
2724;SDS011;1370;52.596;13.112;2023-07-16T10:04:13;2.50;;;2.30;;
2724;SDS011;1370;52.596;13.112;2023-07-16T10:06:49;3.53;;;2.17;;
2724;SDS011;1370;52.596;13.112;2023-07-16T10:09:30;7.33;;;2.50;;
2724;SDS011;1370;52.596;13.112;2023-07-16T10:12:25;8.60;;;2.63;;
2724;SDS011;1370;52.596;13.112;2023-07-16T10:14:50;8.33;;;3.17;;
2724;SDS011;1370;52.596;13.112;2023-07-16T10:17:22;14.17;;;4.00;;
2724;SDS011;1370;52.596;13.112;2023-07-16T10:22:34;2.60;;;2.40;;
2724;SDS011;1370;52.596;13.112;2023-07-16T10:25:21;3.33;;;2.60;;
2724;SDS011;1370;52.596;13.112;2023-07-16T10:27:48;6.10;;;1.73;;
2724;SDS011;1370;52.596;13.112;2023-07-16T10:30:15;6.47;;;2.37;;
2724;SDS011;1370;52.596;13.112;2023-07-16T10:32:43;5.97;;;2.70;;
2724;SDS011;1370;52.596;13.112;2023-07-16T10:35:08;2.83;;;2.13;;
2724;SDS011;1370;52.596;13.112;2023-07-16T10:37:34;2.87;;;1.90;;
2724;SDS011;1370;52.596;13.112;2023-07-16T10:40:00;3.33;;;2.70;;
2724;SDS011;1370;52.596;13.112;2023-07-16T10:42:26;3.77;;;2.90;;
2724;SDS011;1370;52.596;13.112;2023-07-16T10:44:52;7.30;;;2.57;;
2724;SDS011;1370;52.596;13.112;2023-07-16T10:47:29;2.83;;;2.63;;
2724;SDS011;1370;52.596;13.112;2023-07-16T10:49:56;2.50;;;2.30;;
2724;SDS011;1370;52.596;13.112;2023-07-16T10:52:22;2.93;;;2.57;;
2724;SDS011;1370;52.596;13.112;2023-07-16T10:54:48;7.40;;;2.60;;
2724;SDS011;1370;52.596;13.112;2023-07-16T10:57:21;3.37;;;2.90;;
2724;SDS011;1370;52.596;13.112;2023-07-16T10:59:46;3.10;;;2.30;;
2724;SDS011;1370;52.596;13.112;2023-07-16T11:02:14;5.00;;;2.03;;
2724;SDS011;1370;52.596;13.112;2023-07-16T11:04:40;2.77;;;2.20;;
2724;SDS011;1370;52.596;13.112;2023-07-16T11:07:09;4.77;;;2.37;;
2724;SDS011;1370;52.596;13.112;2023-07-16T11:09:42;2.83;;;1.90;;
2724;SDS011;1370;52.596;13.112;2023-07-16T11:12:12;2.63;;;2.43;;
2724;SDS011;1370;52.596;13.112;2023-07-16T11:14:42;2.77;;;2.47;;
2724;SDS011;1370;52.596;13.112;2023-07-16T11:17:11;2.57;;;2.37;;
2724;SDS011;1370;52.596;13.112;2023-07-16T11:19:37;2.73;;;2.53;;
2724;SDS011;1370;52.596;13.112;2023-07-16T11:22:03;3.20;;;2.57;;
2724;SDS011;1370;52.596;13.112;2023-07-16T11:24:35;3.97;;;3.00;;
2724;SDS011;1370;52.596;13.112;2023-07-16T11:27:05;2.60;;;2.40;;
2724;SDS011;1370;52.596;13.112;2023-07-16T11:29:34;6.17;;;2.83;;
2724;SDS011;1370;52.596;13.112;2023-07-16T11:32:01;3.67;;;2.97;;
2724;SDS011;1370;52.596;13.112;2023-07-16T11:34:26;3.53;;;2.67;;
2724;SDS011;1370;52.596;13.112;2023-07-16T11:36:51;12.33;;;2.97;;
2724;SDS011;1370;52.596;13.112;2023-07-16T11:39:16;5.10;;;2.20;;
2724;SDS011;1370;52.596;13.112;2023-07-16T11:41:42;4.13;;;2.80;;
2724;SDS011;1370;52.596;13.112;2023-07-16T11:44:07;3.40;;;2.97;;
2724;SDS011;1370;52.596;13.112;2023-07-16T11:46:34;3.40;;;2.00;;
2724;SDS011;1370;52.596;13.112;2023-07-16T11:49:00;6.87;;;2.50;;
2724;SDS011;1370;52.596;13.112;2023-07-16T11:51:25;2.80;;;2.43;;
2724;SDS011;1370;52.596;13.112;2023-07-16T11:53:50;5.53;;;2.43;;
2724;SDS011;1370;52.596;13.112;2023-07-16T11:56:16;2.33;;;2.00;;
2724;SDS011;1370;52.596;13.112;2023-07-16T11:58:41;3.87;;;2.30;;
2724;SDS011;1370;52.596;13.112;2023-07-16T12:01:06;3.50;;;2.10;;
2724;SDS011;1370;52.596;13.112;2023-07-16T12:03:31;6.03;;;2.97;;
2724;SDS011;1370;52.596;13.112;2023-07-16T12:05:57;2.70;;;2.47;;
2724;SDS011;1370;52.596;13.112;2023-07-16T12:08:22;5.33;;;2.60;;
2724;SDS011;1370;52.596;13.112;2023-07-16T12:10:47;3.93;;;2.00;;
2724;SDS011;1370;52.596;13.112;2023-07-16T12:13:13;3.50;;;2.27;;
2724;SDS011;1370;52.596;13.112;2023-07-16T12:15:38;3.40;;;2.40;;
2724;SDS011;1370;52.596;13.112;2023-07-16T12:18:03;8.17;;;3.17;;
2724;SDS011;1370;52.596;13.112;2023-07-16T12:20:28;8.63;;;2.90;;
2724;SDS011;1370;52.596;13.112;2023-07-16T12:22:54;3.97;;;2.80;;
2724;SDS011;1370;52.596;13.112;2023-07-16T12:25:19;4.57;;;2.20;;
2724;SDS011;1370;52.596;13.112;2023-07-16T12:27:44;5.57;;;2.67;;
2724;SDS011;1370;52.596;13.112;2023-07-16T12:30:10;3.33;;;1.90;;
2724;SDS011;1370;52.596;13.112;2023-07-16T12:32:35;8.10;;;2.20;;
2724;SDS011;1370;52.596;13.112;2023-07-16T12:35:01;3.37;;;2.20;;
2724;SDS011;1370;52.596;13.112;2023-07-16T12:37:26;3.47;;;2.50;;
2724;SDS011;1370;52.596;13.112;2023-07-16T12:39:52;11.20;;;2.37;;
2724;SDS011;1370;52.596;13.112;2023-07-16T12:42:17;2.30;;;1.77;;
2724;SDS011;1370;52.596;13.112;2023-07-16T12:44:42;7.37;;;2.47;;
2724;SDS011;1370;52.596;13.112;2023-07-16T12:47:07;4.40;;;2.60;;
2724;SDS011;1370;52.596;13.112;2023-07-16T12:49:36;7.43;;;2.13;;
2724;SDS011;1370;52.596;13.112;2023-07-16T12:52:01;3.40;;;2.30;;
2724;SDS011;1370;52.596;13.112;2023-07-16T12:54:27;4.07;;;2.47;;
2724;SDS011;1370;52.596;13.112;2023-07-16T12:56:52;3.97;;;2.23;;
2724;SDS011;1370;52.596;13.112;2023-07-16T12:59:17;4.30;;;1.90;;
2724;SDS011;1370;52.596;13.112;2023-07-16T13:01:43;10.07;;;3.10;;
2724;SDS011;1370;52.596;13.112;2023-07-16T13:04:08;3.70;;;2.10;;
2724;SDS011;1370;52.596;13.112;2023-07-16T13:06:34;5.90;;;2.83;;
2724;SDS011;1370;52.596;13.112;2023-07-16T13:09:00;4.37;;;2.10;;
2724;SDS011;1370;52.596;13.112;2023-07-16T13:11:25;4.67;;;2.33;;
2724;SDS011;1370;52.596;13.112;2023-07-16T13:13:51;8.93;;;2.60;;
2724;SDS011;1370;52.596;13.112;2023-07-16T13:16:16;4.53;;;2.70;;
2724;SDS011;1370;52.596;13.112;2023-07-16T13:18:41;4.10;;;2.33;;
2724;SDS011;1370;52.596;13.112;2023-07-16T13:21:07;4.57;;;1.90;;
2724;SDS011;1370;52.596;13.112;2023-07-16T13:23:32;3.73;;;1.83;;
2724;SDS011;1370;52.596;13.112;2023-07-16T13:25:57;3.30;;;2.20;;
2724;SDS011;1370;52.596;13.112;2023-07-16T13:28:23;3.40;;;2.47;;
2724;SDS011;1370;52.596;13.112;2023-07-16T13:30:49;4.97;;;2.27;;
2724;SDS011;1370;52.596;13.112;2023-07-16T13:33:14;3.17;;;2.00;;
2724;SDS011;1370;52.596;13.112;2023-07-16T13:35:39;3.30;;;1.87;;
2724;SDS011;1370;52.596;13.112;2023-07-16T13:38:05;4.20;;;2.10;;
2724;SDS011;1370;52.596;13.112;2023-07-16T13:40:30;4.37;;;1.87;;
2724;SDS011;1370;52.596;13.112;2023-07-16T13:42:55;4.47;;;2.13;;
2724;SDS011;1370;52.596;13.112;2023-07-16T13:45:20;3.70;;;1.90;;
2724;SDS011;1370;52.596;13.112;2023-07-16T13:47:46;3.00;;;1.97;;
2724;SDS011;1370;52.596;13.112;2023-07-16T13:50:11;3.63;;;2.20;;
2724;SDS011;1370;52.596;13.112;2023-07-16T13:52:36;3.30;;;2.03;;
2724;SDS011;1370;52.596;13.112;2023-07-16T13:55:02;6.30;;;2.43;;
2724;SDS011;1370;52.596;13.112;2023-07-16T13:57:29;5.70;;;3.27;;
2724;SDS011;1370;52.596;13.112;2023-07-16T13:59:54;8.30;;;4.40;;
2724;SDS011;1370;52.596;13.112;2023-07-16T14:02:20;5.80;;;2.73;;
2724;SDS011;1370;52.596;13.112;2023-07-16T14:04:45;7.23;;;1.80;;
2724;SDS011;1370;52.596;13.112;2023-07-16T14:07:10;4.53;;;1.60;;
2724;SDS011;1370;52.596;13.112;2023-07-16T14:09:36;3.90;;;2.03;;
2724;SDS011;1370;52.596;13.112;2023-07-16T14:12:01;7.00;;;2.50;;
2724;SDS011;1370;52.596;13.112;2023-07-16T14:14:26;3.20;;;2.57;;
2724;SDS011;1370;52.596;13.112;2023-07-16T14:16:52;4.77;;;1.77;;
2724;SDS011;1370;52.596;13.112;2023-07-16T14:19:18;3.33;;;2.90;;
2724;SDS011;1370;52.596;13.112;2023-07-16T14:21:43;4.73;;;2.53;;
2724;SDS011;1370;52.596;13.112;2023-07-16T14:24:08;6.33;;;2.23;;
2724;SDS011;1370;52.596;13.112;2023-07-16T14:26:34;5.07;;;2.40;;
2724;SDS011;1370;52.596;13.112;2023-07-16T14:28:59;4.87;;;1.90;;
2724;SDS011;1370;52.596;13.112;2023-07-16T14:31:24;3.07;;;2.33;;
2724;SDS011;1370;52.596;13.112;2023-07-16T14:33:50;8.27;;;2.40;;
2724;SDS011;1370;52.596;13.112;2023-07-16T14:36:16;2.60;;;1.97;;
2724;SDS011;1370;52.596;13.112;2023-07-16T14:38:41;6.43;;;2.30;;
2724;SDS011;1370;52.596;13.112;2023-07-16T14:41:07;2.80;;;1.83;;
2724;SDS011;1370;52.596;13.112;2023-07-16T14:43:32;11.93;;;2.63;;
2724;SDS011;1370;52.596;13.112;2023-07-16T14:45:58;2.83;;;1.97;;
2724;SDS011;1370;52.596;13.112;2023-07-16T14:48:23;6.87;;;2.10;;
2724;SDS011;1370;52.596;13.112;2023-07-16T14:50:49;4.53;;;2.00;;
2724;SDS011;1370;52.596;13.112;2023-07-16T14:53:15;7.80;;;2.17;;
2724;SDS011;1370;52.596;13.112;2023-07-16T14:55:45;2.40;;;1.90;;
2724;SDS011;1370;52.596;13.112;2023-07-16T14:58:11;3.03;;;1.80;;
2724;SDS011;1370;52.596;13.112;2023-07-16T15:00:37;3.50;;;2.07;;
2724;SDS011;1370;52.596;13.112;2023-07-16T15:03:02;2.60;;;1.97;;
2724;SDS011;1370;52.596;13.112;2023-07-16T15:05:29;5.60;;;2.23;;